createdAt,value
2022-11-20T00:01:22.284Z,96627.44
2022-11-20T00:06:18.654Z,96616.47
2022-11-20T00:11:16.152Z,96608.84
2022-11-20T00:16:13.885Z,96620.06
2022-11-20T00:21:11.569Z,96628.25
2022-11-20T00:26:06.321Z,96615.53
2022-11-20T00:31:05.015Z,96620.34
2022-11-20T00:36:03.854Z,96618.31
2022-11-20T00:40:59.520Z,96622.78
2022-11-20T00:45:53.250Z,96623.34
2022-11-20T00:50:46.615Z,96622.69
2022-11-20T00:55:41.991Z,96622.09
2022-11-20T01:00:35.369Z,96628.88
2022-11-20T01:05:28.888Z,96625.91
2022-11-20T01:10:22.196Z,96632.53
2022-11-20T01:15:17.113Z,96627.28
2022-11-20T01:20:12.334Z,96629.56
2022-11-20T01:25:06.620Z,96637.03
2022-11-20T01:30:01.439Z,96651.22
2022-11-20T01:34:56.304Z,96650.09
2022-11-20T01:39:49.649Z,96654.75
2022-11-20T01:44:56.706Z,96659.53
2022-11-20T01:49:57.799Z,96663.75
2022-11-20T01:55:02.377Z,96664.03
2022-11-20T02:00:02.171Z,96665.97
2022-11-20T02:05:06.546Z,96663.66
2022-11-20T02:09:59.920Z,96669.41
2022-11-20T02:14:53.405Z,96673.06
2022-11-20T02:19:48.630Z,96679.75
2022-11-20T02:24:47.415Z,96679.66
2022-11-20T02:29:47.422Z,96693.31
2022-11-20T02:34:40.743Z,96688.03
2022-11-20T02:39:34.227Z,96694.34
2022-11-20T02:44:28.935Z,96677.97
2022-11-20T02:49:22.459Z,96677.78
2022-11-20T02:54:16.020Z,96672.13
2022-11-20T02:59:09.955Z,96676.94
2022-11-20T03:04:05.223Z,96669.31
2022-11-20T03:08:58.487Z,96675.38
2022-11-20T03:13:51.855Z,96654.91
2022-11-20T03:18:45.539Z,96663.38
2022-11-20T03:23:41.218Z,96652.28
2022-11-20T03:28:34.573Z,96658.06
2022-11-20T03:33:30.554Z,96670.56
2022-11-20T03:38:23.850Z,96668.13
2022-11-20T03:43:18.558Z,96655.94
2022-11-20T03:48:11.845Z,96652.47
2022-11-20T03:53:05.111Z,96652.84
2022-11-20T03:57:58.443Z,96650.75
2022-11-20T04:02:53.122Z,96655.78
2022-11-20T04:07:46.434Z,96655.84
2022-11-20T04:12:39.705Z,96651.75
2022-11-20T04:17:32.999Z,96648.16
2022-11-20T04:22:27.712Z,96654.84
2022-11-20T04:27:21.009Z,96648.44
2022-11-20T04:32:14.287Z,96645.53
2022-11-20T04:37:07.524Z,96642.59
2022-11-20T04:42:19.636Z,96646.38
2022-11-20T04:47:12.905Z,96654.94
2022-11-20T04:52:06.272Z,96646.03
2022-11-20T04:57:00.922Z,96645.53
2022-11-20T05:01:54.274Z,96660.28
2022-11-20T05:06:47.611Z,96651.84
2022-11-20T05:11:40.986Z,96648.34
2022-11-20T05:16:37.335Z,96660.31
2022-11-20T05:21:33.373Z,96671.59
2022-11-20T05:26:26.645Z,96685.47
2022-11-20T05:31:27.151Z,96684.28
2022-11-20T05:36:22.506Z,96684.63
2022-11-20T05:41:18.721Z,96684.59
2022-11-20T05:46:15.245Z,96683.72
2022-11-20T05:51:12.402Z,96685.88
2022-11-20T05:56:11.759Z,96690.88
2022-11-20T06:01:15.851Z,96699.25
2022-11-20T06:06:11.830Z,96706.78
2022-11-20T06:11:11.897Z,96709.75
2022-11-20T06:16:06.417Z,96702.97
2022-11-20T06:21:05.676Z,96702.91
2022-11-20T06:25:59.208Z,96688.84
2022-11-20T06:30:53.826Z,96678.38
2022-11-20T06:35:47.150Z,96694.16
2022-11-20T06:40:45.514Z,96693.16
2022-11-20T06:45:39.121Z,96695.81
2022-11-20T06:50:33.791Z,96706.81
2022-11-20T06:55:27.095Z,96715.16
2022-11-20T07:00:20.632Z,96716.28
2022-11-20T07:05:13.923Z,96714.78
2022-11-20T07:10:10.214Z,96719.72
2022-11-20T07:15:03.596Z,96722.13
2022-11-20T07:19:56.985Z,96730.75
2022-11-20T07:24:50.464Z,96736.91
2022-11-20T07:29:45.096Z,96744.06
2022-11-20T07:34:38.431Z,96741.94
2022-11-20T07:39:31.734Z,96756.34
2022-11-20T07:44:25.013Z,96756.13
2022-11-20T07:49:19.989Z,96755.41
2022-11-20T07:54:13.478Z,96747.22
2022-11-20T07:59:06.750Z,96735.31
2022-11-20T08:04:00.337Z,96743.75
2022-11-20T08:08:55.057Z,96754.09
2022-11-20T08:14:05.872Z,96746.59
2022-11-20T08:18:59.276Z,96765.81
2022-11-20T08:23:53.911Z,96772.00
2022-11-20T08:28:47.767Z,96778.84
2022-11-20T08:33:41.156Z,96782.03
2022-11-20T08:38:35.223Z,96779.50
2022-11-20T08:43:29.956Z,96783.09
2022-11-20T08:48:23.508Z,96782.69
2022-11-20T08:53:16.941Z,96781.84
2022-11-20T08:58:11.356Z,96769.47
2022-11-20T09:03:06.231Z,96766.34
2022-11-20T09:08:01.426Z,96759.56
2022-11-20T09:12:56.235Z,96756.09
2022-11-20T09:17:54.309Z,96769.22
2022-11-20T09:22:52.543Z,96766.72
2022-11-20T09:27:47.137Z,96765.47
2022-11-20T09:32:51.311Z,96762.94
2022-11-20T09:37:44.679Z,96753.28
2022-11-20T09:42:53.964Z,96757.63
2022-11-20T09:48:13.478Z,96757.00
2022-11-20T09:53:31.603Z,96767.53
2022-11-20T09:58:36.622Z,96770.56
2022-11-20T10:15:36.028Z,96775.78
2022-11-20T10:21:17.437Z,96776.22
2022-11-20T10:26:25.421Z,96775.78
2022-11-20T10:31:34.341Z,96767.22
2022-11-20T10:36:45.840Z,96774.75
2022-11-20T10:41:48.363Z,96769.75
2022-11-20T10:46:47.728Z,96779.44
2022-11-20T10:51:56.583Z,96762.81
2022-11-20T10:56:53.374Z,96768.25
2022-11-20T11:01:51.588Z,96755.72
2022-11-20T11:06:58.081Z,96766.06
2022-11-20T11:12:04.263Z,96753.63
2022-11-20T11:17:02.369Z,96750.59
2022-11-20T11:21:58.654Z,96748.94
2022-11-20T11:27:05.447Z,96737.78
2022-11-20T11:32:14.438Z,96732.03
2022-11-20T11:37:15.882Z,96726.09
2022-11-20T11:42:18.524Z,96723.91
2022-11-20T11:47:27.636Z,96718.88
2022-11-20T11:52:26.419Z,96711.28
2022-11-20T11:57:31.798Z,96716.81
2022-11-20T12:02:40.101Z,96713.66
2022-11-20T12:07:47.112Z,96703.53
2022-11-20T12:12:47.408Z,96700.91
2022-11-20T12:17:42.175Z,96692.59
2022-11-20T12:22:52.675Z,96695.06
2022-11-20T12:28:15.369Z,96684.88
2022-11-20T12:33:47.981Z,96684.72
2022-11-20T12:39:32.496Z,96682.53
2022-11-20T12:45:11.437Z,96670.38
2022-11-20T12:51:24.955Z,96669.03
2022-11-20T12:56:39.250Z,96664.19
2022-11-20T13:01:46.233Z,96655.97
2022-11-20T13:06:43.412Z,96652.75
2022-11-20T13:12:07.446Z,96641.53
2022-11-20T13:17:07.962Z,96624.47
2022-11-20T13:22:05.116Z,96629.94
2022-11-20T13:27:32.907Z,96618.03
2022-11-20T13:32:28.938Z,96614.69
2022-11-20T13:37:36.267Z,96611.13
2022-11-20T13:42:31.008Z,96620.03
2022-11-20T13:47:27.507Z,96603.03
2022-11-20T13:52:53.779Z,96611.19
2022-11-20T13:58:09.987Z,96598.84
2022-11-20T14:03:44.261Z,96602.44
2022-11-20T14:08:46.618Z,96594.47
2022-11-20T14:13:40.283Z,96587.72
2022-11-20T14:18:33.992Z,96589.03
2022-11-20T14:23:31.678Z,96585.84
2022-11-20T14:28:46.918Z,96582.16
2022-11-20T14:33:50.067Z,96575.97
2022-11-20T14:38:55.524Z,96571.06
2022-11-20T14:43:59.207Z,96567.97
2022-11-20T14:48:57.408Z,96563.72
2022-11-20T14:53:53.154Z,96573.91
2022-11-20T14:58:59.604Z,96576.59
2022-11-20T15:04:11.392Z,96569.84
2022-11-20T15:09:10.774Z,96563.78
2022-11-20T15:14:11.063Z,96549.63
2022-11-20T15:19:18.907Z,96550.25
2022-11-20T15:24:15.464Z,96529.41
2022-11-20T15:29:13.758Z,96525.94
2022-11-20T15:34:13.338Z,96523.78
2022-11-20T15:39:08.148Z,96502.31
2022-11-20T15:44:01.434Z,96487.72
2022-11-20T15:48:59.378Z,96480.09
2022-11-20T15:53:52.788Z,96473.41
2022-11-20T15:58:46.189Z,96470.13
2022-11-20T16:03:58.202Z,96452.41
2022-11-20T16:08:51.612Z,96459.25
2022-11-20T16:14:04.930Z,96480.09
2022-11-20T16:19:00.993Z,96477.38
2022-11-20T16:23:54.342Z,96464.03
2022-11-20T16:28:48.072Z,96463.72
2022-11-20T16:33:41.949Z,96454.88
2022-11-20T16:38:36.992Z,96458.09
2022-11-20T16:43:30.667Z,96459.22
2022-11-20T16:48:24.131Z,96460.88
2022-11-20T16:53:18.350Z,96451.28
2022-11-20T16:58:18.120Z,96458.78
2022-11-20T17:03:12.062Z,96441.47
2022-11-20T17:08:06.208Z,96432.56
2022-11-20T17:12:59.559Z,96422.34
2022-11-20T17:17:54.269Z,96418.19
2022-11-20T17:22:47.544Z,96438.09
2022-11-20T17:27:41.186Z,96448.03
2022-11-20T17:32:34.679Z,96422.94
2022-11-20T17:37:29.423Z,96424.50
2022-11-20T17:42:29.758Z,96418.38
2022-11-20T17:47:23.251Z,96415.44
2022-11-20T17:52:16.615Z,96413.78
2022-11-20T17:57:29.191Z,96421.78
2022-11-20T18:02:22.739Z,96425.19
2022-11-20T18:07:16.082Z,96408.56
2022-11-20T18:12:11.013Z,96400.00
2022-11-20T18:17:08.047Z,96401.19
2022-11-20T18:22:01.812Z,96389.41
2022-11-20T18:26:55.339Z,96402.06
2022-11-20T18:31:50.181Z,96407.97
2022-11-20T18:36:45.366Z,96400.94
2022-11-20T18:41:56.366Z,96394.94
2022-11-20T18:46:52.083Z,96381.19
2022-11-20T18:51:45.641Z,96383.88
2022-11-20T18:56:39.400Z,96386.19
2022-11-20T19:01:38.435Z,96392.03
2022-11-20T19:06:33.530Z,96390.34
2022-11-20T19:11:29.895Z,96386.94
2022-11-20T19:16:24.911Z,96385.78
2022-11-20T19:21:25.252Z,96391.94
2022-11-20T19:26:27.227Z,96404.66
2022-11-20T19:31:31.513Z,96426.38
2022-11-20T19:36:28.795Z,96422.06
2022-11-20T19:41:38.750Z,96432.78
2022-11-20T19:46:44.821Z,96444.53
2022-11-20T19:51:59.705Z,96438.19
2022-11-20T19:56:55.027Z,96438.50
2022-11-20T20:01:48.615Z,96451.41
2022-11-20T20:06:45.789Z,96457.44
2022-11-20T20:12:04.429Z,96446.91
2022-11-20T20:16:59.338Z,96456.78
2022-11-20T20:22:45.124Z,96455.84
2022-11-20T20:27:42.592Z,96457.38
2022-11-20T20:32:51.943Z,96462.69
2022-11-20T20:37:55.017Z,96441.75
2022-11-20T20:42:55.167Z,96449.44
2022-11-20T20:47:56.002Z,96444.59
2022-11-20T20:52:52.314Z,96444.69
2022-11-20T20:58:08.420Z,96451.94
2022-11-20T21:03:58.274Z,96457.59
2022-11-20T21:08:55.969Z,96461.19
2022-11-20T21:13:55.613Z,96471.69
2022-11-20T21:18:54.359Z,96479.56
2022-11-20T21:23:56.935Z,96472.97
2022-11-20T21:29:03.687Z,96466.47
2022-11-20T21:34:39.422Z,96490.03
2022-11-20T21:39:52.974Z,96490.06
2022-11-20T21:44:47.978Z,96508.66
2022-11-20T21:49:42.980Z,96512.53
2022-11-20T21:54:43.535Z,96513.84
2022-11-20T21:59:38.814Z,96502.78
2022-11-20T22:04:59.217Z,96503.34
2022-11-20T22:09:52.794Z,96514.97
2022-11-20T22:14:49.444Z,96503.38
2022-11-20T22:19:44.685Z,96516.84
2022-11-20T22:24:39.409Z,96511.63
2022-11-20T22:29:33.184Z,96510.25
2022-11-20T22:34:26.899Z,96514.13
2022-11-20T22:39:31.000Z,96502.22
2022-11-20T22:45:06.972Z,96495.94
2022-11-20T22:50:27.880Z,96469.94
2022-11-20T22:56:25.751Z,96468.56
2022-11-20T23:01:29.001Z,96474.94
2022-11-20T23:06:23.905Z,96489.16
2022-11-20T23:11:20.600Z,96502.78
2022-11-20T23:16:16.662Z,96492.13
2022-11-20T23:21:15.012Z,96479.59
2022-11-20T23:26:11.262Z,96472.63
2022-11-20T23:31:15.272Z,96468.28
2022-11-20T23:36:55.951Z,96458.56
2022-11-20T23:41:49.696Z,96474.34
2022-11-20T23:46:46.510Z,96467.91
2022-11-20T23:51:51.354Z,96468.44
